Time;durP1;ratioP1;P1;durP2;ratioP2;P2;SDS_P1;SDS_P2;PMS_P1;PMS_P2;Temp;Humidity;BMP_temperature;BMP_pressure;BME280_temperature;BME280_humidity;BME280_pressure;Samples;Min_cycle;Max_cycle;Signal;HPM_P1;HPM_P2
2022/01/31 00:00:08;;;;;;;0.10;0.10;;;;;;;7.91;62.09;101509.88;5011286;28;20022;-86
2022/01/31 00:02:37;;;;;;;0.00;0.00;;;;;;;7.81;63.97;101499.31;5016778;28;20022;-87
2022/01/31 00:05:05;;;;;;;0.10;0.10;;;;;;;7.90;63.18;101467.63;5016287;28;20066;-87
2022/01/31 00:07:31;;;;;;;0.10;0.10;;;;;;;7.69;64.58;101458.84;5012938;28;20048;-87
2022/01/31 00:09:58;;;;;;;0.00;0.00;;;;;;;7.49;65.51;101469.34;5016353;28;20542;-86
2022/01/31 00:12:30;;;;;;;0.20;0.20;;;;;;;7.56;65.67;101441.22;5010845;28;20034;-87
2022/01/31 00:15:02;;;;;;;4.07;1.45;;;;;;;7.50;66.25;101433.28;5016772;28;20030;-86
2022/01/31 00:17:28;;;;;;;0.10;0.10;;;;;;;7.31;67.15;101425.34;5017757;28;20034;-86
2022/01/31 00:19:54;;;;;;;0.10;0.10;;;;;;;7.51;66.24;101424.50;5013487;28;20109;-86
2022/01/31 00:22:20;;;;;;;0.10;0.10;;;;;;;7.48;67.13;101421.84;5014802;28;20034;-86
2022/01/31 00:24:47;;;;;;;21.90;1.65;;;;;;;7.34;67.30;101417.44;5021026;28;20091;-85
2022/01/31 00:27:13;;;;;;;0.10;0.10;;;;;;;7.47;66.79;101404.28;5011362;28;20060;-85
2022/01/31 00:29:39;;;;;;;0.43;0.43;;;;;;;7.40;67.66;101396.38;5009969;28;20025;-85
2022/01/31 00:32:06;;;;;;;0.05;0.05;;;;;;;7.42;67.57;101377.91;5015457;28;20401;-84
2022/01/31 00:34:32;;;;;;;0.10;0.10;;;;;;;7.35;67.79;101374.41;5017090;28;20030;-83
2022/01/31 00:36:59;;;;;;;0.38;0.38;;;;;;;7.31;67.78;101362.06;5015815;28;20045;-83
2022/01/31 00:39:25;;;;;;;0.10;0.10;;;;;;;7.25;69.08;101354.16;5015075;28;20029;-83
2022/01/31 00:41:51;;;;;;;0.10;0.10;;;;;;;7.21;69.28;101349.75;5015546;28;20112;-82
2022/01/31 00:44:22;;;;;;;0.10;0.10;;;;;;;7.21;69.27;101344.50;5016553;28;20041;-83
2022/01/31 00:46:54;;;;;;;3.80;3.60;;;;;;;7.17;69.27;101322.50;5013728;28;20547;-83
2022/01/31 00:52:07;;;;;;;0.10;0.10;;;;;;;7.23;69.47;101308.47;5082568;27;20415;-81
2022/01/31 00:54:34;;;;;;;0.10;0.10;;;;;;;7.25;68.93;101291.78;5068701;28;20039;-81
2022/01/31 00:57:00;;;;;;;3.88;2.58;;;;;;;7.12;69.95;101304.06;5064423;28;20075;-81
2022/01/31 00:59:26;;;;;;;0.10;0.10;;;;;;;7.20;69.57;101261.03;5065045;28;20124;-82
2022/01/31 01:01:53;;;;;;;0.10;0.10;;;;;;;7.19;70.01;101270.69;5069745;28;20036;-81
2022/01/31 01:04:22;;;;;;;0.10;0.10;;;;;;;7.18;70.57;101268.03;5063996;28;20078;-83
2022/01/31 01:06:48;;;;;;;0.10;0.10;;;;;;;6.98;70.81;101253.09;5063701;28;20032;-81
2022/01/31 01:09:14;;;;;;;0.10;0.10;;;;;;;7.04;70.92;101245.22;5063071;28;20056;-82
2022/01/31 01:11:41;;;;;;;0.00;0.00;;;;;;;7.18;70.71;101220.59;5066723;28;20025;-82
2022/01/31 01:14:10;;;;;;;0.08;0.08;;;;;;;7.16;70.44;101214.47;5067819;28;20032;-83
2022/01/31 01:16:36;;;;;;;0.00;0.00;;;;;;;7.09;70.84;101211.84;5068388;28;20037;-84
2022/01/31 01:19:04;;;;;;;0.10;0.10;;;;;;;7.15;70.69;101189.88;5069012;28;20025;-82
2022/01/31 01:21:30;;;;;;;0.10;0.10;;;;;;;7.21;71.05;101178.44;5067824;28;20116;-84
2022/01/31 01:23:57;;;;;;;0.10;0.10;;;;;;;7.20;70.56;101174.94;5064394;28;20487;-83
2022/01/31 01:26:24;;;;;;;0.10;0.10;;;;;;;7.01;72.03;101176.69;5068486;28;20115;-83
2022/01/31 01:28:50;;;;;;;0.10;0.10;;;;;;;7.20;71.55;101158.25;5066069;28;20068;-84
2022/01/31 01:31:16;;;;;;;0.25;0.25;;;;;;;7.35;70.77;101152.97;5069439;28;20476;-84
2022/01/31 01:33:43;;;;;;;0.08;0.08;;;;;;;7.21;71.90;101149.47;5068558;28;20079;-84
2022/01/31 01:36:10;;;;;;;0.10;0.10;;;;;;;7.34;71.82;101145.94;5068537;28;20032;-84
2022/01/31 01:38:37;;;;;;;0.20;0.20;;;;;;;7.40;71.07;101135.38;5065030;28;20045;-83
2022/01/31 01:41:03;;;;;;;0.10;0.10;;;;;;;7.42;71.85;101144.16;5059533;28;20035;-82
2022/01/31 01:43:30;;;;;;;0.10;0.10;;;;;;;7.41;72.00;101130.97;5067765;28;20080;-83
2022/01/31 01:45:58;;;;;;;0.10;0.10;;;;;;;7.61;71.22;101133.56;5068067;28;20035;-84
2022/01/31 01:48:25;;;;;;;0.10;0.10;;;;;;;7.69;71.28;101121.22;5068130;28;20017;-83
2022/01/31 01:50:51;;;;;;;1.45;1.45;;;;;;;7.68;71.82;101106.28;5066414;28;20043;-82
2022/01/31 01:53:18;;;;;;;0.05;0.05;;;;;;;7.82;71.51;101100.94;5067790;28;20037;-83
2022/01/31 01:55:46;;;;;;;0.10;0.10;;;;;;;7.89;72.07;101104.44;5067343;28;20123;-82
2022/01/31 01:58:16;;;;;;;0.10;0.10;;;;;;;7.96;72.18;101108.78;5067832;28;20048;-83
2022/01/31 02:00:50;;;;;;;0.10;0.10;;;;;;;8.02;72.29;101098.19;5066545;28;20037;-83
2022/01/31 02:03:17;;;;;;;0.10;0.10;;;;;;;8.17;72.38;101091.09;5054593;28;20143;-84
2022/01/31 02:05:43;;;;;;;0.10;0.10;;;;;;;8.35;71.57;101076.88;5054445;28;20082;-83
2022/01/31 02:08:15;;;;;;;0.13;0.13;;;;;;;8.42;71.91;101076.84;5054819;28;20036;-84
2022/01/31 02:10:42;;;;;;;0.10;0.10;;;;;;;8.39;72.07;101061.03;5054524;28;20068;-84
2022/01/31 02:13:10;;;;;;;0.05;0.05;;;;;;;8.52;71.17;101082.97;5054367;28;20135;-84
2022/01/31 02:15:37;;;;;;;0.00;0.00;;;;;;;8.53;70.89;101068.00;5049999;28;20112;-84
2022/01/31 02:18:05;;;;;;;0.10;0.10;;;;;;;8.63;70.43;101059.09;5054420;28;20051;-84
2022/01/31 02:20:35;;;;;;;0.00;0.00;;;;;;;8.67;69.85;101059.94;5054234;28;20025;-85
2022/01/31 02:23:05;;;;;;;0.38;0.38;;;;;;;8.74;69.71;101088.94;5054254;28;20029;-85
2022/01/31 02:25:31;;;;;;;0.10;0.10;;;;;;;8.86;69.50;101060.66;5052002;28;20122;-85
2022/01/31 02:27:57;;;;;;;0.00;0.00;;;;;;;8.92;69.06;101030.66;5053074;28;20428;-85
2022/01/31 02:30:30;;;;;;;0.00;0.00;;;;;;;8.97;68.64;101053.53;5053990;28;20039;-85
2022/01/31 02:33:03;;;;;;;3.60;3.25;;;;;;;9.01;68.22;101044.66;5050600;28;20074;-84
2022/01/31 02:35:29;;;;;;;0.00;0.00;;;;;;;8.87;68.08;101034.25;5052896;28;20118;-86
2022/01/31 02:37:55;;;;;;;0.00;0.00;;;;;;;8.84;67.09;101049.25;5054018;28;20036;-86
2022/01/31 02:40:21;;;;;;;0.10;0.10;;;;;;;8.95;67.49;101051.75;5053824;28;20021;-84
2022/01/31 02:42:51;;;;;;;1.95;1.85;;;;;;;9.00;66.75;101034.13;5053294;28;20048;-86
2022/01/31 02:45:18;;;;;;;4.63;0.52;;;;;;;8.97;66.97;101040.31;5051332;28;20086;-86
2022/01/31 02:47:51;;;;;;;0.03;0.03;;;;;;;9.09;66.04;101041.06;5052809;28;20056;-86
2022/01/31 02:50:18;;;;;;;0.08;0.08;;;;;;;9.10;66.07;101024.28;5054037;28;20064;-86
2022/01/31 02:52:48;;;;;;;0.10;0.10;;;;;;;9.04;65.34;101012.03;5054398;28;20037;-87
2022/01/31 02:55:15;;;;;;;0.00;0.00;;;;;;;9.07;65.01;101046.34;5050272;28;20028;-86
2022/01/31 02:57:42;;;;;;;0.00;0.00;;;;;;;9.16;64.81;101019.84;5054103;28;20021;-86
2022/01/31 03:00:12;;;;;;;0.03;0.03;;;;;;;9.04;64.63;101028.75;5053146;28;20025;-86
2022/01/31 03:02:38;;;;;;;0.00;0.00;;;;;;;9.13;64.07;101032.22;5051128;28;20132;-86
2022/01/31 03:05:04;;;;;;;0.10;0.10;;;;;;;8.83;63.57;101010.50;5053727;28;20384;-87
2022/01/31 03:07:31;;;;;;;0.00;0.00;;;;;;;9.05;63.58;101009.38;5052383;28;20029;-87
2022/01/31 03:09:57;;;;;;;0.40;0.40;;;;;;;9.03;63.16;101000.59;5052732;28;20600;-87
2022/01/31 03:12:23;;;;;;;0.00;0.00;;;;;;;9.09;62.50;101002.28;5052011;28;20075;-86
2022/01/31 03:14:49;;;;;;;0.00;0.00;;;;;;;8.97;62.45;100999.78;5053066;28;20064;-87
2022/01/31 03:17:16;;;;;;;0.10;0.10;;;;;;;8.88;62.85;101006.03;5054199;28;20029;-86
2022/01/31 03:19:42;;;;;;;3.55;3.20;;;;;;;8.89;62.25;101007.78;5053724;28;20404;-86
2022/01/31 03:22:09;;;;;;;0.10;0.10;;;;;;;8.82;62.06;101022.84;5052107;28;20416;-86
2022/01/31 03:24:36;;;;;;;0.10;0.10;;;;;;;8.82;61.48;101006.09;5050945;28;20017;-87
2022/01/31 03:27:02;;;;;;;0.00;0.00;;;;;;;8.85;61.78;101003.44;5053124;28;20391;-87
2022/01/31 03:29:29;;;;;;;0.43;0.43;;;;;;;8.87;61.63;100999.91;5053426;28;20472;-87
2022/01/31 03:31:55;;;;;;;1.10;1.10;;;;;;;8.93;61.66;100996.28;5051297;28;20036;-86
2022/01/31 03:34:21;;;;;;;0.10;0.10;;;;;;;8.95;61.46;100986.59;5053335;28;20476;-87
2022/01/31 03:36:51;;;;;;;0.00;0.00;;;;;;;8.93;61.61;100961.06;5046266;28;20556;-87
2022/01/31 03:39:18;;;;;;;0.55;0.55;;;;;;;8.90;61.66;100980.47;5052520;28;20383;-88
2022/01/31 03:41:44;;;;;;;0.10;0.10;;;;;;;8.86;61.32;100982.28;5046332;28;20037;-89
2022/01/31 03:44:15;;;;;;;0.10;0.10;;;;;;;8.86;60.93;100987.56;5054533;28;20093;-89
2022/01/31 03:46:46;;;;;;;5.40;0.70;;;;;;;8.86;60.41;100966.44;5052243;28;20504;-89
2022/01/31 03:49:12;;;;;;;0.20;0.20;;;;;;;8.92;60.88;100976.03;5049971;28;20391;-89
2022/01/31 03:51:42;;;;;;;0.08;0.08;;;;;;;8.99;60.10;100974.22;5054119;28;20078;-88
2022/01/31 03:54:08;;;;;;;0.03;0.03;;;;;;;8.94;59.65;100966.34;5051665;28;20082;-88
2022/01/31 03:56:35;;;;;;;0.20;0.20;;;;;;;8.97;59.62;100962.78;5052542;28;20071;-88
2022/01/31 03:59:05;;;;;;;1.65;0.45;;;;;;;9.12;59.07;100959.97;5046205;28;20029;-88
2022/01/31 04:01:32;;;;;;;0.20;0.20;;;;;;;9.12;58.54;100951.16;5046088;28;20033;-89
2022/01/31 04:03:58;;;;;;;0.10;0.10;;;;;;;9.04;58.30;100973.25;5035616;28;20427;-88
2022/01/31 04:06:24;;;;;;;0.00;0.00;;;;;;;9.03;58.21;100963.59;5048345;28;20025;-89
2022/01/31 04:08:51;;;;;;;0.10;0.10;;;;;;;9.11;58.22;100954.69;5050050;28;20034;-88
2022/01/31 04:11:17;;;;;;;0.10;0.10;;;;;;;9.11;58.08;100976.72;5046057;28;20121;-88
2022/01/31 04:13:44;;;;;;;0.00;0.00;;;;;;;9.02;57.77;100961.84;5035940;28;20026;-89
2022/01/31 04:16:10;;;;;;;0.10;0.10;;;;;;;9.17;57.44;100965.19;5045938;28;20079;-88
2022/01/31 04:18:37;;;;;;;0.00;0.00;;;;;;;9.12;56.93;100949.41;5035695;28;20037;-89
2022/01/31 04:21:03;;;;;;;0.10;0.10;;;;;;;9.11;56.89;100933.53;5035664;28;20033;-88
2022/01/31 04:23:29;;;;;;;0.00;0.00;;;;;;;8.94;56.73;100953.13;5035525;28;20057;-88
2022/01/31 04:26:06;;;;;;;0.10;0.10;;;;;;;9.09;56.90;100956.50;5035546;28;20056;-89
2022/01/31 04:28:40;;;;;;;0.00;0.00;;;;;;;9.18;56.23;100943.16;5036904;28;20071;-88
2022/01/31 04:31:36;;;;;;;0.10;0.10;;;;;;;8.98;56.07;100938.09;5035312;28;20087;-88
2022/01/31 04:33:53;;;;;;;0.10;0.10;;;;;;;9.19;56.15;100923.75;5038655;28;20133;-88
2022/01/31 04:36:20;;;;;;;0.03;0.03;;;;;;;9.21;56.20;100922.84;5037511;28;20026;-88
2022/01/31 04:38:48;;;;;;;0.10;0.10;;;;;;;9.26;55.91;100921.88;5036313;28;20684;-88
2022/01/31 04:41:15;;;;;;;0.10;0.10;;;;;;;9.15;56.23;100945.84;5051398;28;20031;-89
2022/01/31 04:43:47;;;;;;;0.10;0.10;;;;;;;9.18;55.83;100908.78;5041833;28;20136;-90
2022/01/31 04:46:14;;;;;;;0.10;0.10;;;;;;;9.20;55.73;100901.72;5035036;28;20679;-89
2022/01/31 04:48:40;;;;;;;0.10;0.10;;;;;;;9.10;56.17;100913.28;5037637;28;20037;-89
2022/01/31 04:51:06;;;;;;;0.08;0.08;;;;;;;9.19;55.44;100907.88;5035532;28;20033;-89
2022/01/31 04:53:32;;;;;;;0.08;0.08;;;;;;;9.05;56.44;100924.78;5040449;28;20021;-88
2022/01/31 04:55:59;;;;;;;0.00;0.00;;;;;;;9.19;57.17;100905.25;5034994;28;20033;-88
2022/01/31 04:58:25;;;;;;;0.10;0.10;;;;;;;8.95;57.43;100941.66;5035486;28;20056;-88
2022/01/31 05:00:52;;;;;;;0.00;0.00;;;;;;;8.80;58.72;100928.63;5036053;28;20025;-87
2022/01/31 05:03:20;;;;;;;0.00;0.00;;;;;;;8.43;60.24;100935.13;5035092;28;20030;-87
2022/01/31 05:05:47;;;;;;;0.10;0.10;;;;;;;8.38;62.28;100951.00;5046611;28;20021;-88
2022/01/31 05:08:14;;;;;;;0.10;0.10;;;;;;;8.07;64.06;100964.50;5037735;28;20064;-87
2022/01/31 05:10:46;;;;;;;0.10;0.10;;;;;;;8.01;63.75;100943.44;5047976;28;20072;-87
2022/01/31 05:13:15;;;;;;;0.10;0.10;;;;;;;7.93;64.64;100947.88;5044891;28;20025;-87
2022/01/31 05:15:53;;;;;;;0.00;0.00;;;;;;;7.99;64.12;100939.91;5034498;28;20488;-87
2022/01/31 05:18:20;;;;;;;0.00;0.00;;;;;;;8.02;64.05;100934.59;5035123;28;20350;-86
2022/01/31 05:20:47;;;;;;;0.20;0.20;;;;;;;7.98;64.69;100930.25;5036470;28;20562;-87
2022/01/31 05:23:13;;;;;;;0.10;0.10;;;;;;;7.96;64.77;100934.66;5036099;28;20018;-87
2022/01/31 05:25:39;;;;;;;0.10;0.10;;;;;;;7.96;64.86;100941.69;5043187;28;20029;-86
2022/01/31 05:28:06;;;;;;;0.10;0.10;;;;;;;7.93;64.84;100937.31;5050719;28;20033;-86
2022/01/31 05:30:32;;;;;;;0.73;0.68;;;;;;;7.84;64.52;100924.19;5049524;28;20087;-87
2022/01/31 05:32:58;;;;;;;0.10;0.10;;;;;;;7.97;64.25;100915.28;5047313;28;20133;-88
2022/01/31 05:35:24;;;;;;;0.00;0.00;;;;;;;7.89;63.85;100911.88;5041748;28;20646;-87
2022/01/31 05:37:51;;;;;;;0.00;0.00;;;;;;;8.00;63.35;100909.13;5053059;28;20033;-87
2022/01/31 05:40:17;;;;;;;0.00;0.00;;;;;;;8.07;62.25;100929.28;5055056;28;20063;-88
2022/01/31 05:42:43;;;;;;;0.10;0.10;;;;;;;7.94;61.73;100932.03;5051420;28;20474;-87
2022/01/31 05:45:09;;;;;;;0.00;0.00;;;;;;;8.19;61.19;100918.63;5041919;28;20044;-87
2022/01/31 05:47:36;;;;;;;0.00;0.00;;;;;;;8.27;60.92;100902.72;5038411;28;20112;-88
2022/01/31 05:50:04;;;;;;;0.00;0.00;;;;;;;8.08;61.74;100918.72;5038209;28;20042;-86
2022/01/31 05:52:31;;;;;;;0.00;0.00;;;;;;;8.19;60.92;100899.28;5039519;28;20049;-86
2022/01/31 05:54:57;;;;;;;0.10;0.10;;;;;;;7.96;61.44;100926.72;5046624;28;20484;-87
2022/01/31 05:57:23;;;;;;;2.45;2.30;;;;;;;8.08;62.15;100887.06;5038391;28;20057;-87
2022/01/31 05:59:51;;;;;;;0.05;0.05;;;;;;;7.87;62.42;100892.53;5039539;28;20079;-87
2022/01/31 06:02:18;;;;;;;0.20;0.20;;;;;;;7.94;61.79;100925.88;5038921;28;20029;-88
2022/01/31 06:04:44;;;;;;;0.10;0.10;;;;;;;7.92;61.80;100901.28;5038938;28;20080;-88
2022/01/31 06:07:10;;;;;;;0.10;0.10;;;;;;;7.97;61.42;100910.03;5043550;28;20071;-89
2022/01/31 06:09:37;;;;;;;0.00;0.00;;;;;;;7.96;61.57;100899.50;5052700;28;20037;-89
2022/01/31 06:12:04;;;;;;;0.10;0.10;;;;;;;8.03;61.58;100886.22;5047199;28;20574;-91
2022/01/31 06:14:34;;;;;;;0.10;0.10;;;;;;;8.10;60.79;100885.28;5040995;28;20036;-89
2022/01/31 06:17:01;;;;;;;1.30;1.27;;;;;;;7.97;60.25;100899.47;5049284;28;20503;-89
2022/01/31 06:19:27;;;;;;;8.15;5.18;;;;;;;8.19;60.15;100907.22;5049805;28;20423;-89
2022/01/31 06:21:53;;;;;;;0.10;0.10;;;;;;;8.19;59.73;100909.84;5055047;28;20068;-89
2022/01/31 06:24:22;;;;;;;28.90;2.47;;;;;;;8.24;60.27;100874.59;5052294;28;20083;-88
2022/01/31 06:26:49;;;;;;;0.00;0.00;;;;;;;8.25;59.35;100925.63;5050909;28;20036;-88
2022/01/31 06:29:15;;;;;;;0.35;0.35;;;;;;;8.20;59.50;100895.75;5040425;28;20029;-87
2022/01/31 06:31:41;;;;;;;0.00;0.00;;;;;;;8.41;58.79;100887.63;5043891;28;20029;-89
2022/01/31 06:34:07;;;;;;;0.00;0.00;;;;;;;8.43;58.24;100898.16;5043393;28;20048;-89
2022/01/31 06:36:36;;;;;;;0.00;0.00;;;;;;;8.55;58.29;100899.84;5041641;28;20051;-90
2022/01/31 06:39:04;;;;;;;0.10;0.10;;;;;;;8.56;58.23;100878.69;5048867;28;20083;-91
2022/01/31 06:41:30;;;;;;;0.10;0.10;;;;;;;8.60;58.63;100905.97;5044968;28;20021;-88
2022/01/31 06:43:56;;;;;;;0.20;0.20;;;;;;;8.51;59.79;100917.50;5043226;28;20049;-88
2022/01/31 06:46:22;;;;;;;0.05;0.05;;;;;;;8.39;61.46;100914.94;5040198;28;20086;-87
2022/01/31 06:48:48;;;;;;;0.52;0.52;;;;;;;8.08;62.44;100976.78;5036689;28;20059;-87
2022/01/31 06:51:15;;;;;;;8.15;2.53;;;;;;;7.71;64.33;100971.78;5039560;28;20042;-88
2022/01/31 06:53:41;;;;;;;0.10;0.10;;;;;;;7.73;64.49;100959.44;5037355;28;20547;-87
2022/01/31 06:56:08;;;;;;;0.00;0.00;;;;;;;7.55;65.12;100975.38;5043848;28;20031;-86
2022/01/31 06:58:34;;;;;;;0.10;0.10;;;;;;;7.49;65.85;100975.41;5048006;28;20700;-86
2022/01/31 07:01:00;;;;;;;0.03;0.03;;;;;;;7.42;66.27;100995.66;5044703;28;20033;-85
2022/01/31 07:03:26;;;;;;;0.10;0.10;;;;;;;7.27;66.98;100970.25;5045202;28;20060;-84
2022/01/31 07:05:52;;;;;;;0.10;0.10;;;;;;;7.34;67.13;100936.81;5050777;28;20036;-87
2022/01/31 07:08:19;;;;;;;0.00;0.00;;;;;;;7.37;67.06;100921.84;5047460;28;20492;-87
2022/01/31 07:10:50;;;;;;;0.10;0.10;;;;;;;7.55;66.81;100944.63;5047704;28;20654;-87
2022/01/31 07:16:16;;;;;;;0.10;0.10;;;;;;;7.48;66.29;100952.53;5066080;27;21231;-84
2022/01/31 07:18:43;;;;;;;0.30;0.30;;;;;;;7.55;66.42;100927.91;5063957;28;20519;-86
2022/01/31 07:21:13;;;;;;;0.10;0.10;;;;;;;7.58;67.01;100938.44;5058898;28;20039;-86
2022/01/31 07:26:27;;;;;;;0.17;0.17;;;;;;;7.43;67.15;100937.63;5054330;28;20049;-85
2022/01/31 07:28:53;;;;;;;3.20;2.83;;;;;;;7.48;67.23;100942.00;5052074;28;20112;-84
2022/01/31 07:31:20;;;;;;;0.30;0.30;;;;;;;7.51;67.23;100916.50;5064798;28;20075;-84
2022/01/31 07:33:46;;;;;;;0.00;0.00;;;;;;;7.61;66.52;100934.03;5066352;28;20104;-84
2022/01/31 07:36:13;;;;;;;0.10;0.10;;;;;;;7.55;66.95;100949.88;5067525;28;20048;-84
2022/01/31 07:38:40;;;;;;;0.10;0.10;;;;;;;7.60;66.13;100941.94;5053570;28;20383;-85
2022/01/31 07:41:10;;;;;;;0.10;0.10;;;;;;;7.65;66.72;100965.66;5050282;28;20187;-85
2022/01/31 07:43:38;;;;;;;0.10;0.10;;;;;;;7.42;67.44;100985.97;5050746;28;20115;-85
2022/01/31 07:46:04;;;;;;;0.22;0.22;;;;;;;7.30;68.03;100996.56;5049731;28;20033;-85
2022/01/31 07:48:31;;;;;;;0.43;0.43;;;;;;;7.34;67.96;100961.44;5053735;28;20108;-85
2022/01/31 07:50:58;;;;;;;0.10;0.10;;;;;;;7.50;67.86;100961.34;5060716;28;20039;-86
2022/01/31 07:53:24;;;;;;;0.00;0.00;;;;;;;7.27;68.32;100955.28;5069405;28;20029;-86
2022/01/31 07:55:50;;;;;;;0.00;0.00;;;;;;;7.42;67.76;100953.47;5069292;28;20115;-85
2022/01/31 07:58:17;;;;;;;0.10;0.10;;;;;;;7.57;67.30;100963.06;5069621;28;20025;-87
2022/01/31 08:00:44;;;;;;;0.10;0.10;;;;;;;7.41;66.88;100978.97;5057042;28;20037;-85
2022/01/31 08:03:10;;;;;;;0.10;0.10;;;;;;;7.52;67.46;100978.03;5049626;28;20025;-86
2022/01/31 08:05:37;;;;;;;0.10;0.10;;;;;;;7.46;67.28;100986.84;5049685;28;20029;-86
2022/01/31 08:08:03;;;;;;;0.00;0.00;;;;;;;7.56;67.02;100982.41;5049229;28;20188;-86
2022/01/31 08:10:29;;;;;;;0.10;0.10;;;;;;;7.39;66.29;101001.81;5063046;28;20036;-87
2022/01/31 08:12:56;;;;;;;0.73;0.73;;;;;;;7.50;66.33;100956.97;5056462;28;20029;-87
2022/01/31 08:15:27;;;;;;;0.90;0.90;;;;;;;7.68;65.31;100966.50;5069129;28;20090;-86
2022/01/31 08:17:53;;;;;;;0.43;0.43;;;;;;;7.68;65.58;100987.59;5068882;28;20400;-86
2022/01/31 08:20:19;;;;;;;0.47;0.47;;;;;;;7.77;65.73;100997.22;5068832;28;20069;-88
2022/01/31 08:22:45;;;;;;;0.20;0.20;;;;;;;7.60;67.67;100999.94;5065635;28;20048;-86
2022/01/31 08:25:14;;;;;;;0.10;0.10;;;;;;;7.45;68.16;101017.59;5049915;28;20037;-87
2022/01/31 08:27:48;;;;;;;0.05;0.05;;;;;;;7.54;67.93;101002.59;5035445;28;20099;-86
2022/01/31 08:30:21;;;;;;;0.10;0.10;;;;;;;7.32;67.73;101010.63;5037039;28;20030;-86
2022/01/31 08:32:58;;;;;;;;;;;;;;;7.38;67.99;101063.31;5055438;28;20108;-87
2022/01/31 08:35:56;;;;;;;0.05;0.05;;;;;;;7.28;67.82;101003.63;5053740;28;19925;-87
2022/01/31 08:38:11;;;;;;;0.30;0.30;;;;;;;7.53;67.31;101014.94;5053570;28;20047;-87
2022/01/31 08:40:38;;;;;;;0.25;0.25;;;;;;;7.31;67.72;101014.13;5050849;28;20021;-87
2022/01/31 08:43:05;;;;;;;0.10;0.10;;;;;;;7.37;67.57;101023.78;5048887;28;20093;-87
2022/01/31 08:45:34;;;;;;;0.10;0.10;;;;;;;7.32;67.54;100996.59;5050430;28;20036;-87
2022/01/31 08:48:00;;;;;;;0.05;0.05;;;;;;;7.39;67.56;101025.53;5053885;28;20047;-87
2022/01/31 08:50:26;;;;;;;0.00;0.00;;;;;;;7.29;67.59;101084.44;5054222;28;20104;-87
2022/01/31 08:52:52;;;;;;;0.10;0.10;;;;;;;7.37;67.19;101016.75;5053699;28;20024;-87
2022/01/31 08:55:20;;;;;;;0.20;0.20;;;;;;;7.47;66.83;101011.47;5053205;28;20369;-86
2022/01/31 08:57:52;;;;;;;0.95;0.95;;;;;;;7.33;66.93;101103.75;5041868;28;20476;-87
2022/01/31 09:00:19;;;;;;;0.10;0.10;;;;;;;7.37;65.34;101007.97;5036069;28;20419;-87
2022/01/31 09:03:00;;;;;;;2.08;1.98;;;;;;;7.58;65.01;101036.00;5053966;28;20785;-87
2022/01/31 09:05:26;;;;;;;0.10;0.10;;;;;;;7.71;64.33;101024.53;5053200;28;20484;-88
2022/01/31 09:07:52;;;;;;;0.15;0.15;;;;;;;7.99;64.15;101047.19;5041500;28;20481;-88
2022/01/31 09:10:19;;;;;;;0.15;0.15;;;;;;;7.80;65.13;101054.34;5039917;28;20448;-87
2022/01/31 09:12:45;;;;;;;0.05;0.05;;;;;;;7.82;65.99;101064.00;5054463;28;20033;-87
2022/01/31 09:15:13;;;;;;;4.03;2.92;;;;;;;7.74;66.55;101056.16;5053580;28;20133;-86
2022/01/31 09:17:41;;;;;;;0.00;0.00;;;;;;;7.44;67.62;101081.75;5051594;28;20435;-86
2022/01/31 09:20:08;;;;;;;0.00;0.00;;;;;;;7.51;67.70;101050.97;5052701;28;20082;-86
2022/01/31 09:22:35;;;;;;;0.10;0.10;;;;;;;7.53;67.66;101061.53;5053630;28;20028;-85
2022/01/31 09:25:01;;;;;;;0.95;0.95;;;;;;;7.36;67.84;101070.34;5053427;28;20040;-86
2022/01/31 09:27:28;;;;;;;4.90;0.85;;;;;;;7.34;66.94;101087.94;5045528;28;20048;-86
2022/01/31 09:29:54;;;;;;;0.10;0.10;;;;;;;7.41;67.55;101105.50;5033194;28;20029;-86
2022/01/31 09:32:24;;;;;;;0.00;0.00;;;;;;;7.45;66.90;101058.91;5052470;28;20059;-86
2022/01/31 09:34:50;;;;;;;0.10;0.10;;;;;;;7.31;66.12;101076.53;5051977;28;20029;-87
2022/01/31 09:37:20;;;;;;;3.13;0.50;;;;;;;7.32;66.24;101081.78;5043347;28;20033;-87
2022/01/31 09:39:48;;;;;;;0.08;0.08;;;;;;;7.54;64.90;101092.25;5053054;28;20025;-87
2022/01/31 09:42:23;;;;;;;0.10;0.10;;;;;;;7.46;65.03;101108.09;5051780;28;20476;-88
2022/01/31 09:45:09;;;;;;;0.32;0.32;;;;;;;7.60;64.59;101079.94;5051839;28;20037;-87
2022/01/31 09:50:22;;;;;;;2.13;1.98;;;;;;;7.59;62.53;101130.94;5048299;28;20059;-88
2022/01/31 09:52:48;;;;;;;8.50;1.98;;;;;;;7.82;62.76;101086.88;5052811;28;20486;-88
2022/01/31 09:55:14;;;;;;;0.10;0.10;;;;;;;7.73;61.98;101130.88;5047407;28;20048;-87
2022/01/31 09:57:41;;;;;;;0.10;0.10;;;;;;;7.86;61.02;101088.63;5044103;28;20063;-89
2022/01/31 10:00:08;;;;;;;0.43;0.43;;;;;;;7.83;61.32;101107.97;5050112;28;20433;-89
2022/01/31 10:02:34;;;;;;;1.08;1.05;;;;;;;7.86;60.97;101110.63;5052181;28;20024;-89
2022/01/31 10:05:00;;;;;;;2.45;1.17;;;;;;;7.85;60.86;101102.69;5051689;28;20025;-89
2022/01/31 10:07:53;;;;;;;0.00;0.00;;;;;;;7.96;60.30;101123.75;5050145;28;20484;-89
2022/01/31 10:10:26;;;;;;;1.88;1.77;;;;;;;8.03;60.32;101130.75;5050126;28;20021;-90
2022/01/31 10:16:40;;;;;;;0.10;0.10;;;;;;;8.00;61.08;101158.03;5080369;27;20468;-89
2022/01/31 10:21:14;;;;;;;0.10;0.10;;;;;;;7.86;61.29;101160.75;5005258;28;20505;-89
2022/01/31 10:22:46;;;;;;;0.38;0.38;;;;;;;8.10;61.28;101159.75;4991309;28;20081;-88
2022/01/31 10:25:24;;;;;;;0.10;0.10;;;;;;;7.96;60.72;101187.94;5005630;28;20194;-89
2022/01/31 10:27:53;;;;;;;0.57;0.57;;;;;;;7.93;61.49;101198.53;5005864;28;20048;-88
2022/01/31 10:30:24;;;;;;;0.05;0.05;;;;;;;7.95;61.22;101191.50;5006989;28;20034;-89
2022/01/31 10:35:40;;;;;;;0.10;0.10;;;;;;;7.73;61.59;101202.09;5086786;23;20052;-90
2022/01/31 10:38:19;;;;;;;0.38;0.38;;;;;;;7.94;61.75;101184.47;5029767;28;20029;-90
2022/01/31 10:52:29;;;;;;;0.15;0.15;;;;;;;7.92;63.68;101204.69;5064739;28;20044;-86
2022/01/31 10:55:14;;;;;;;0.10;0.10;;;;;;;7.80;63.89;101194.16;5068630;28;20031;-88
2022/01/31 10:57:40;;;;;;;0.10;0.10;;;;;;;7.59;63.98;101243.47;5067125;28;20113;-88
2022/01/31 11:00:08;;;;;;;0.03;0.03;;;;;;;7.51;64.80;101237.31;5071733;28;20020;-88
2022/01/31 11:02:37;;;;;;;0.10;0.10;;;;;;;7.68;65.07;101229.38;5066822;28;20025;-87
2022/01/31 11:05:03;;;;;;;1.00;1.00;;;;;;;7.75;65.25;101241.66;5066075;28;20032;-87
2022/01/31 11:07:30;;;;;;;1.05;1.05;;;;;;;7.56;65.34;101224.97;5064349;28;20048;-89
2022/01/31 11:09:56;;;;;;;0.10;0.10;;;;;;;7.53;64.54;101231.13;5064453;28;20027;-86
2022/01/31 11:12:23;;;;;;;0.10;0.10;;;;;;;7.67;64.38;101254.84;5068075;28;20031;-89
2022/01/31 11:14:50;;;;;;;2.95;1.05;;;;;;;7.71;63.49;101222.34;5069616;28;20475;-87
2022/01/31 11:17:18;;;;;;;0.73;0.73;;;;;;;7.89;63.22;101226.69;5069197;28;20036;-87
2022/01/31 11:19:49;;;;;;;0.08;0.08;;;;;;;7.78;62.99;101234.59;5070259;28;20036;-85
2022/01/31 11:22:17;;;;;;;0.00;0.00;;;;;;;7.95;63.05;101241.63;5058019;28;20029;-86
2022/01/31 11:24:46;;;;;;;0.10;0.10;;;;;;;7.93;62.58;101261.84;5063664;28;20041;-86
2022/01/31 11:27:16;;;;;;;0.10;0.10;;;;;;;7.80;62.93;101252.19;5063088;28;20440;-87
2022/01/31 11:29:45;;;;;;;0.10;0.10;;;;;;;7.68;63.27;101271.56;5059320;28;20060;-92
2022/01/31 11:32:12;;;;;;;0.10;0.10;;;;;;;7.63;63.13;101282.13;5064809;28;20039;-88
2022/01/31 11:34:41;;;;;;;0.00;0.00;;;;;;;7.57;63.87;101312.00;5067605;28;20495;-84
2022/01/31 11:37:10;;;;;;;0.00;0.00;;;;;;;7.67;64.14;101281.22;5063685;28;20032;-84
2022/01/31 11:39:38;;;;;;;0.00;0.00;;;;;;;7.63;64.07;101300.56;5067986;28;20028;-85
2022/01/31 11:42:06;;;;;;;0.00;0.00;;;;;;;7.40;64.66;101288.28;5067156;28;20154;-87
2022/01/31 11:44:44;;;;;;;1.35;1.35;;;;;;;7.56;65.22;101330.47;5068416;28;20545;-86
2022/01/31 11:47:11;;;;;;;0.08;0.08;;;;;;;7.58;65.19;101297.94;5064618;28;20029;-90
2022/01/31 11:52:53;;;;;;;0.10;0.10;;;;;;;7.51;65.86;101319.91;5065178;28;20767;-87
2022/01/31 11:55:21;;;;;;;0.10;0.10;;;;;;;7.48;65.63;101292.66;5059292;28;20107;-86
2022/01/31 11:57:51;;;;;;;0.10;0.10;;;;;;;7.52;65.35;101318.16;5069360;28;20025;-87
2022/01/31 12:00:19;;;;;;;1.55;1.45;;;;;;;7.69;64.87;101311.13;5070031;28;20395;-86
2022/01/31 12:05:28;;;;;;;0.30;0.30;;;;;;;7.70;64.66;101312.00;5085717;27;20774;-85
2022/01/31 12:19:45;;;;;;;4.93;2.25;;;;;;;7.72;65.71;101329.56;4990473;28;1270768;-86
2022/01/31 12:22:48;;;;;;;0.10;0.10;;;;;;;7.70;65.04;101334.00;5030629;28;20125;-85
2022/01/31 12:25:31;;;;;;;1.20;1.20;;;;;;;7.88;64.97;101354.19;5030524;28;20061;-84